sensor_id;sensor_type;location;lat;lon;timestamp;pressure;altitude;pressure_sealevel;temperature;humidity
47522;BME280;32291;52.010;4.446;2023-07-22T00:00:29;77908.59;;;-144.67;100.00
47522;BME280;32291;52.010;4.446;2023-07-22T00:01:32;77910.75;;;-144.67;100.00
47522;BME280;32291;52.010;4.446;2023-07-22T00:02:34;77917.16;;;-144.67;100.00
47522;BME280;32291;52.010;4.446;2023-07-22T00:03:41;77923.59;;;-144.67;100.00
47522;BME280;32291;52.010;4.446;2023-07-22T00:04:43;77927.88;;;-144.67;100.00
47522;BME280;32291;52.010;4.446;2023-07-22T00:06:09;77921.44;;;-144.67;100.00
47522;BME280;32291;52.010;4.446;2023-07-22T00:07:16;77930.00;;;-144.67;100.00
47522;BME280;32291;52.010;4.446;2023-07-22T00:08:18;77932.16;;;-144.67;100.00
47522;BME280;32291;52.010;4.446;2023-07-22T00:09:25;77932.16;;;-144.67;100.00
47522;BME280;32291;52.010;4.446;2023-07-22T00:10:27;77932.16;;;-144.67;100.00
47522;BME280;32291;52.010;4.446;2023-07-22T00:11:29;77932.16;;;-144.67;100.00
47522;BME280;32291;52.010;4.446;2023-07-22T00:12:32;77936.44;;;-144.67;100.00
47522;BME280;32291;52.010;4.446;2023-07-22T00:13:35;77930.00;;;-144.67;100.00
47522;BME280;32291;52.010;4.446;2023-07-22T00:14:42;77932.16;;;-144.67;100.00
47522;BME280;32291;52.010;4.446;2023-07-22T00:15:44;77927.88;;;-144.67;100.00
47522;BME280;32291;52.010;4.446;2023-07-22T00:16:46;77932.16;;;-144.67;100.00
47522;BME280;32291;52.010;4.446;2023-07-22T00:17:53;77936.44;;;-144.67;100.00
47522;BME280;32291;52.010;4.446;2023-07-22T00:18:55;77936.44;;;-144.67;100.00
47522;BME280;32291;52.010;4.446;2023-07-22T00:19:57;77927.88;;;-144.67;100.00
47522;BME280;32291;52.010;4.446;2023-07-22T00:21:04;77932.16;;;-144.67;100.00
47522;BME280;32291;52.010;4.446;2023-07-22T00:22:12;77927.88;;;-144.67;100.00
47522;BME280;32291;52.010;4.446;2023-07-22T00:23:19;77932.16;;;-144.67;100.00
47522;BME280;32291;52.010;4.446;2023-07-22T00:24:26;77932.16;;;-144.67;100.00
47522;BME280;32291;52.010;4.446;2023-07-22T00:25:33;77927.88;;;-144.67;100.00
47522;BME280;32291;52.010;4.446;2023-07-22T00:26:40;77936.44;;;-144.67;100.00
47522;BME280;32291;52.010;4.446;2023-07-22T00:27:43;77936.44;;;-144.67;100.00
47522;BME280;32291;52.010;4.446;2023-07-22T00:28:50;77940.72;;;-144.67;100.00
47522;BME280;32291;52.010;4.446;2023-07-22T00:29:57;77945.00;;;-144.67;100.00
47522;BME280;32291;52.010;4.446;2023-07-22T00:31:02;77940.72;;;-144.67;100.00
47522;BME280;32291;52.010;4.446;2023-07-22T00:32:09;77940.72;;;-144.67;100.00
47522;BME280;32291;52.010;4.446;2023-07-22T00:33:16;77936.44;;;-144.67;100.00
47522;BME280;32291;52.010;4.446;2023-07-22T00:34:18;77938.56;;;-144.67;100.00
47522;BME280;32291;52.010;4.446;2023-07-22T00:35:21;77932.16;;;-144.67;100.00
47522;BME280;32291;52.010;4.446;2023-07-22T00:36:23;77934.28;;;-144.67;100.00
47522;BME280;32291;52.010;4.446;2023-07-22T00:37:26;77940.72;;;-144.67;100.00
47522;BME280;32291;52.010;4.446;2023-07-22T00:38:33;77936.44;;;-144.67;100.00
47522;BME280;32291;52.010;4.446;2023-07-22T00:39:40;77942.84;;;-144.67;100.00
47522;BME280;32291;52.010;4.446;2023-07-22T00:40:47;77945.00;;;-144.67;100.00
47522;BME280;32291;52.010;4.446;2023-07-22T00:41:54;77949.28;;;-144.67;100.00
47522;BME280;32291;52.010;4.446;2023-07-22T00:43:02;77951.41;;;-144.67;100.00
47522;BME280;32291;52.010;4.446;2023-07-22T00:44:11;77951.41;;;-144.67;100.00
47522;BME280;32291;52.010;4.446;2023-07-22T00:45:19;77951.41;;;-144.67;100.00
47522;BME280;32291;52.010;4.446;2023-07-22T00:46:21;77951.41;;;-144.67;100.00
47522;BME280;32291;52.010;4.446;2023-07-22T00:47:28;77957.84;;;-144.67;100.00
47522;BME280;32291;52.010;4.446;2023-07-22T00:48:35;77957.84;;;-144.67;100.00
47522;BME280;32291;52.010;4.446;2023-07-22T00:49:38;77953.56;;;-144.67;100.00
47522;BME280;32291;52.010;4.446;2023-07-22T00:50:45;77957.84;;;-144.67;100.00
47522;BME280;32291;52.010;4.446;2023-07-22T00:51:52;77962.13;;;-144.67;100.00
47522;BME280;32291;52.010;4.446;2023-07-22T00:52:54;77959.97;;;-144.67;100.00
47522;BME280;32291;52.010;4.446;2023-07-22T00:53:57;77957.84;;;-144.67;100.00
47522;BME280;32291;52.010;4.446;2023-07-22T00:54:59;77959.97;;;-144.67;100.00
47522;BME280;32291;52.010;4.446;2023-07-22T00:56:02;77957.84;;;-144.67;100.00
47522;BME280;32291;52.010;4.446;2023-07-22T00:57:04;77964.25;;;-144.67;100.00
47522;BME280;32291;52.010;4.446;2023-07-22T00:58:11;77962.13;;;-144.67;100.00
47522;BME280;32291;52.010;4.446;2023-07-22T00:59:19;77962.13;;;-144.67;100.00
47522;BME280;32291;52.010;4.446;2023-07-22T01:00:21;77966.41;;;-144.67;100.00
47522;BME280;32291;52.010;4.446;2023-07-22T01:01:23;77962.13;;;-144.67;100.00
47522;BME280;32291;52.010;4.446;2023-07-22T01:02:30;77962.13;;;-144.67;100.00
47522;BME280;32291;52.010;4.446;2023-07-22T01:03:37;77966.41;;;-144.67;100.00
47522;BME280;32291;52.010;4.446;2023-07-22T01:04:39;77964.25;;;-144.67;100.00
47522;BME280;32291;52.010;4.446;2023-07-22T01:05:42;77959.97;;;-144.67;100.00
47522;BME280;32291;52.010;4.446;2023-07-22T01:06:51;77962.13;;;-144.67;100.00
47522;BME280;32291;52.010;4.446;2023-07-22T01:07:59;77962.13;;;-144.67;100.00
47522;BME280;32291;52.010;4.446;2023-07-22T01:09:02;77962.13;;;-144.67;100.00
47522;BME280;32291;52.010;4.446;2023-07-22T01:10:09;77962.13;;;-144.67;100.00
47522;BME280;32291;52.010;4.446;2023-07-22T01:11:12;77957.84;;;-144.67;100.00
47522;BME280;32291;52.010;4.446;2023-07-22T01:12:19;77957.84;;;-144.67;100.00
47522;BME280;32291;52.010;4.446;2023-07-22T01:13:21;77955.69;;;-144.67;100.00
47522;BME280;32291;52.010;4.446;2023-07-22T01:14:23;77949.28;;;-144.67;100.00
47522;BME280;32291;52.010;4.446;2023-07-22T01:15:31;77955.69;;;-144.67;100.00
47522;BME280;32291;52.010;4.446;2023-07-22T01:16:34;77953.56;;;-144.67;100.00
47522;BME280;32291;52.010;4.446;2023-07-22T01:17:37;77962.13;;;-144.67;100.00
47522;BME280;32291;52.010;4.446;2023-07-22T01:18:45;77962.13;;;-144.67;100.00
47522;BME280;32291;52.010;4.446;2023-07-22T01:19:48;77957.84;;;-144.67;100.00
47522;BME280;32291;52.010;4.446;2023-07-22T01:20:51;77957.84;;;-144.67;100.00
47522;BME280;32291;52.010;4.446;2023-07-22T01:21:54;77955.69;;;-144.67;100.00
47522;BME280;32291;52.010;4.446;2023-07-22T01:22:57;77957.84;;;-144.67;100.00
47522;BME280;32291;52.010;4.446;2023-07-22T01:24:05;77953.56;;;-144.67;100.00
47522;BME280;32291;52.010;4.446;2023-07-22T01:25:12;77953.56;;;-144.67;100.00
47522;BME280;32291;52.010;4.446;2023-07-22T01:26:18;77951.41;;;-144.67;100.00
47522;BME280;32291;52.010;4.446;2023-07-22T01:27:20;77953.56;;;-144.67;100.00
47522;BME280;32291;52.010;4.446;2023-07-22T01:28:27;77953.56;;;-144.67;100.00
47522;BME280;32291;52.010;4.446;2023-07-22T01:29:29;77947.13;;;-144.67;100.00
47522;BME280;32291;52.010;4.446;2023-07-22T01:30:36;77951.41;;;-144.67;100.00
47522;BME280;32291;52.010;4.446;2023-07-22T01:31:47;77953.56;;;-144.67;100.00
47522;BME280;32291;52.010;4.446;2023-07-22T01:32:54;77953.56;;;-144.67;100.00
47522;BME280;32291;52.010;4.446;2023-07-22T01:33:57;77949.28;;;-144.67;100.00
47522;BME280;32291;52.010;4.446;2023-07-22T01:35:06;77953.56;;;-144.67;100.00
47522;BME280;32291;52.010;4.446;2023-07-22T01:36:09;77951.41;;;-144.67;100.00
47522;BME280;32291;52.010;4.446;2023-07-22T01:37:12;77953.56;;;-144.67;100.00
47522;BME280;32291;52.010;4.446;2023-07-22T01:38:18;77949.28;;;-144.67;100.00
47522;BME280;32291;52.010;4.446;2023-07-22T01:39:26;77953.56;;;-144.67;100.00
47522;BME280;32291;52.010;4.446;2023-07-22T01:40:29;77949.28;;;-144.67;100.00
47522;BME280;32291;52.010;4.446;2023-07-22T01:41:37;77945.00;;;-144.67;100.00
47522;BME280;32291;52.010;4.446;2023-07-22T01:42:41;77945.00;;;-144.67;100.00
47522;BME280;32291;52.010;4.446;2023-07-22T01:43:44;77942.84;;;-144.67;100.00
47522;BME280;32291;52.010;4.446;2023-07-22T01:44:46;77949.28;;;-144.67;100.00
47522;BME280;32291;52.010;4.446;2023-07-22T01:45:53;77949.28;;;-144.67;100.00
47522;BME280;32291;52.010;4.446;2023-07-22T01:47:02;77957.84;;;-144.67;100.00
47522;BME280;32291;52.010;4.446;2023-07-22T01:48:05;77953.56;;;-144.67;100.00
47522;BME280;32291;52.010;4.446;2023-07-22T01:49:11;77959.97;;;-144.67;100.00
47522;BME280;32291;52.010;4.446;2023-07-22T01:50:19;77962.13;;;-144.67;100.00
47522;BME280;32291;52.010;4.446;2023-07-22T01:51:21;77957.84;;;-144.67;100.00
47522;BME280;32291;52.010;4.446;2023-07-22T01:52:23;77953.56;;;-144.67;100.00
47522;BME280;32291;52.010;4.446;2023-07-22T01:53:26;77959.97;;;-144.67;100.00
47522;BME280;32291;52.010;4.446;2023-07-22T01:54:33;77957.84;;;-144.67;100.00
47522;BME280;32291;52.010;4.446;2023-07-22T01:55:39;77957.84;;;-144.67;100.00
47522;BME280;32291;52.010;4.446;2023-07-22T01:56:41;77953.56;;;-144.67;100.00
47522;BME280;32291;52.010;4.446;2023-07-22T01:57:48;77947.13;;;-144.67;100.00
47522;BME280;32291;52.010;4.446;2023-07-22T01:58:50;77945.00;;;-144.67;100.00
47522;BME280;32291;52.010;4.446;2023-07-22T01:59:57;77949.28;;;-144.67;100.00
47522;BME280;32291;52.010;4.446;2023-07-22T02:01:05;77949.28;;;-144.67;100.00
47522;BME280;32291;52.010;4.446;2023-07-22T02:02:12;77955.69;;;-144.67;100.00
47522;BME280;32291;52.010;4.446;2023-07-22T02:03:19;77955.69;;;-144.67;100.00
47522;BME280;32291;52.010;4.446;2023-07-22T02:04:26;77959.97;;;-144.67;100.00
47522;BME280;32291;52.010;4.446;2023-07-22T02:05:34;77957.84;;;-144.67;100.00
47522;BME280;32291;52.010;4.446;2023-07-22T02:06:41;77955.69;;;-144.67;100.00
47522;BME280;32291;52.010;4.446;2023-07-22T02:07:48;77962.13;;;-144.67;100.00
47522;BME280;32291;52.010;4.446;2023-07-22T02:08:50;77959.97;;;-144.67;100.00
47522;BME280;32291;52.010;4.446;2023-07-22T02:09:52;77962.13;;;-144.67;100.00
47522;BME280;32291;52.010;4.446;2023-07-22T02:11:05;77966.41;;;-144.67;100.00
47522;BME280;32291;52.010;4.446;2023-07-22T02:12:13;77962.13;;;-144.67;100.00
47522;BME280;32291;52.010;4.446;2023-07-22T02:13:15;77966.41;;;-144.67;100.00
47522;BME280;32291;52.010;4.446;2023-07-22T02:14:17;77968.53;;;-144.67;100.00
47522;BME280;32291;52.010;4.446;2023-07-22T02:15:19;77966.41;;;-144.67;100.00
47522;BME280;32291;52.010;4.446;2023-07-22T02:16:23;77966.41;;;-144.67;100.00
47522;BME280;32291;52.010;4.446;2023-07-22T02:17:30;77964.25;;;-144.67;100.00
47522;BME280;32291;52.010;4.446;2023-07-22T02:18:32;77959.97;;;-144.67;100.00
47522;BME280;32291;52.010;4.446;2023-07-22T02:19:39;77959.97;;;-144.67;100.00
47522;BME280;32291;52.010;4.446;2023-07-22T02:20:46;77962.13;;;-144.67;100.00
47522;BME280;32291;52.010;4.446;2023-07-22T02:21:53;77957.84;;;-144.67;100.00
47522;BME280;32291;52.010;4.446;2023-07-22T02:22:55;77955.69;;;-144.67;100.00
47522;BME280;32291;52.010;4.446;2023-07-22T02:24:02;77957.84;;;-144.67;100.00
47522;BME280;32291;52.010;4.446;2023-07-22T02:25:05;77959.97;;;-144.67;100.00
47522;BME280;32291;52.010;4.446;2023-07-22T02:26:13;77959.97;;;-144.67;100.00
47522;BME280;32291;52.010;4.446;2023-07-22T02:27:20;77962.13;;;-144.67;100.00
47522;BME280;32291;52.010;4.446;2023-07-22T02:28:27;77966.41;;;-144.67;100.00
47522;BME280;32291;52.010;4.446;2023-07-22T02:29:29;77962.13;;;-144.67;100.00
47522;BME280;32291;52.010;4.446;2023-07-22T02:30:36;77966.41;;;-144.67;100.00
47522;BME280;32291;52.010;4.446;2023-07-22T02:31:39;77966.41;;;-144.67;100.00
47522;BME280;32291;52.010;4.446;2023-07-22T02:32:42;77962.13;;;-144.67;100.00
47522;BME280;32291;52.010;4.446;2023-07-22T02:33:49;77964.25;;;-144.67;100.00
47522;BME280;32291;52.010;4.446;2023-07-22T02:34:51;77959.97;;;-144.67;100.00
47522;BME280;32291;52.010;4.446;2023-07-22T02:35:53;77966.41;;;-144.67;100.00
47522;BME280;32291;52.010;4.446;2023-07-22T02:36:55;77966.41;;;-144.67;100.00
47522;BME280;32291;52.010;4.446;2023-07-22T02:38:02;77964.25;;;-144.67;100.00
47522;BME280;32291;52.010;4.446;2023-07-22T02:39:04;77966.41;;;-144.67;100.00
47522;BME280;32291;52.010;4.446;2023-07-22T02:40:11;77964.25;;;-144.67;100.00
47522;BME280;32291;52.010;4.446;2023-07-22T02:41:14;77959.97;;;-144.67;100.00
47522;BME280;32291;52.010;4.446;2023-07-22T02:42:16;77962.13;;;-144.67;100.00
47522;BME280;32291;52.010;4.446;2023-07-22T02:43:23;77970.69;;;-144.67;100.00
47522;BME280;32291;52.010;4.446;2023-07-22T02:44:25;77970.69;;;-144.67;100.00
47522;BME280;32291;52.010;4.446;2023-07-22T02:45:27;77968.53;;;-144.67;100.00
47522;BME280;32291;52.010;4.446;2023-07-22T02:46:29;77966.41;;;-144.67;100.00
47522;BME280;32291;52.010;4.446;2023-07-22T02:47:34;77970.69;;;-144.67;100.00
47522;BME280;32291;52.010;4.446;2023-07-22T02:48:36;77966.41;;;-144.67;100.00
47522;BME280;32291;52.010;4.446;2023-07-22T02:49:38;77966.41;;;-144.67;100.00
47522;BME280;32291;52.010;4.446;2023-07-22T02:50:45;77966.41;;;-144.67;100.00
47522;BME280;32291;52.010;4.446;2023-07-22T02:51:52;77966.41;;;-144.67;100.00
47522;BME280;32291;52.010;4.446;2023-07-22T02:52:54;77962.13;;;-144.67;100.00
47522;BME280;32291;52.010;4.446;2023-07-22T02:54:01;77962.13;;;-144.67;100.00
47522;BME280;32291;52.010;4.446;2023-07-22T02:55:15;77957.84;;;-144.67;100.00
47522;BME280;32291;52.010;4.446;2023-07-22T02:56:20;77959.97;;;-144.67;100.00
47522;BME280;32291;52.010;4.446;2023-07-22T02:57:23;77962.13;;;-144.67;100.00
47522;BME280;32291;52.010;4.446;2023-07-22T02:58:29;77953.56;;;-144.67;100.00
47522;BME280;32291;52.010;4.446;2023-07-22T02:59:32;77966.41;;;-144.67;100.00
47522;BME280;32291;52.010;4.446;2023-07-22T03:00:35;77962.13;;;-144.67;100.00
47522;BME280;32291;52.010;4.446;2023-07-22T03:01:41;77966.41;;;-144.67;100.00
47522;BME280;32291;52.010;4.446;2023-07-22T03:02:44;77959.97;;;-144.67;100.00
47522;BME280;32291;52.010;4.446;2023-07-22T03:03:46;77966.41;;;-144.67;100.00
47522;BME280;32291;52.010;4.446;2023-07-22T03:04:53;77966.41;;;-144.67;100.00
47522;BME280;32291;52.010;4.446;2023-07-22T03:05:55;77966.41;;;-144.67;100.00
47522;BME280;32291;52.010;4.446;2023-07-22T03:07:04;77962.13;;;-144.67;100.00
47522;BME280;32291;52.010;4.446;2023-07-22T03:08:08;77953.56;;;-144.67;100.00
47522;BME280;32291;52.010;4.446;2023-07-22T03:09:10;77953.56;;;-144.67;100.00
47522;BME280;32291;52.010;4.446;2023-07-22T03:10:13;77962.13;;;-144.67;100.00
47522;BME280;32291;52.010;4.446;2023-07-22T03:11:20;77962.13;;;-144.67;100.00
47522;BME280;32291;52.010;4.446;2023-07-22T03:12:22;77959.97;;;-144.67;100.00
47522;BME280;32291;52.010;4.446;2023-07-22T03:13:29;77959.97;;;-144.67;100.00
47522;BME280;32291;52.010;4.446;2023-07-22T03:14:36;77957.84;;;-144.67;100.00
47522;BME280;32291;52.010;4.446;2023-07-22T03:15:39;77957.84;;;-144.67;100.00
47522;BME280;32291;52.010;4.446;2023-07-22T03:16:46;77962.13;;;-144.67;100.00
47522;BME280;32291;52.010;4.446;2023-07-22T03:17:48;77955.69;;;-144.67;100.00
47522;BME280;32291;52.010;4.446;2023-07-22T03:18:56;77959.97;;;-144.67;100.00
47522;BME280;32291;52.010;4.446;2023-07-22T03:20:04;77962.13;;;-144.67;100.00
47522;BME280;32291;52.010;4.446;2023-07-22T03:21:10;77966.41;;;-144.67;100.00
47522;BME280;32291;52.010;4.446;2023-07-22T03:22:15;77970.69;;;-144.67;100.00
47522;BME280;32291;52.010;4.446;2023-07-22T03:23:20;77966.41;;;-144.67;100.00
47522;BME280;32291;52.010;4.446;2023-07-22T03:24:22;77970.69;;;-144.67;100.00
47522;BME280;32291;52.010;4.446;2023-07-22T03:25:29;77974.97;;;-144.67;100.00
47522;BME280;32291;52.010;4.446;2023-07-22T03:26:36;77974.97;;;-144.67;100.00
47522;BME280;32291;52.010;4.446;2023-07-22T03:27:39;77974.97;;;-144.67;100.00
47522;BME280;32291;52.010;4.446;2023-07-22T03:28:45;77977.09;;;-144.67;100.00
47522;BME280;32291;52.010;4.446;2023-07-22T03:29:53;77970.69;;;-144.67;100.00
47522;BME280;32291;52.010;4.446;2023-07-22T03:30:55;77979.25;;;-144.67;100.00
47522;BME280;32291;52.010;4.446;2023-07-22T03:31:57;77981.38;;;-144.67;100.00
47522;BME280;32291;52.010;4.446;2023-07-22T03:33:00;77983.53;;;-144.67;100.00
47522;BME280;32291;52.010;4.446;2023-07-22T03:34:02;77983.53;;;-144.67;100.00
47522;BME280;32291;52.010;4.446;2023-07-22T03:35:10;77979.25;;;-144.67;100.00
47522;BME280;32291;52.010;4.446;2023-07-22T03:36:15;77983.53;;;-144.67;100.00
47522;BME280;32291;52.010;4.446;2023-07-22T03:37:22;77983.53;;;-144.67;100.00
47522;BME280;32291;52.010;4.446;2023-07-22T03:38:29;77983.53;;;-144.67;100.00
47522;BME280;32291;52.010;4.446;2023-07-22T03:39:36;77983.53;;;-144.67;100.00
47522;BME280;32291;52.010;4.446;2023-07-22T03:40:38;77983.53;;;-144.67;100.00
47522;BME280;32291;52.010;4.446;2023-07-22T03:41:45;77983.53;;;-144.67;100.00
47522;BME280;32291;52.010;4.446;2023-07-22T03:42:51;77983.53;;;-144.67;100.00
47522;BME280;32291;52.010;4.446;2023-07-22T03:43:54;77985.66;;;-144.67;100.00
47522;BME280;32291;52.010;4.446;2023-07-22T03:45:01;77983.53;;;-144.67;100.00
47522;BME280;32291;52.010;4.446;2023-07-22T03:46:11;77987.81;;;-144.67;100.00
47522;BME280;32291;52.010;4.446;2023-07-22T03:47:13;77981.38;;;-144.67;100.00
47522;BME280;32291;52.010;4.446;2023-07-22T03:48:15;77987.81;;;-144.67;100.00
47522;BME280;32291;52.010;4.446;2023-07-22T03:49:18;77979.25;;;-144.67;100.00
47522;BME280;32291;52.010;4.446;2023-07-22T03:50:20;77985.66;;;-144.67;100.00
47522;BME280;32291;52.010;4.446;2023-07-22T03:51:27;77985.66;;;-144.67;100.00
47522;BME280;32291;52.010;4.446;2023-07-22T03:52:34;77979.25;;;-144.67;100.00
47522;BME280;32291;52.010;4.446;2023-07-22T03:53:36;77981.38;;;-144.67;100.00
47522;BME280;32291;52.010;4.446;2023-07-22T03:54:42;77979.25;;;-144.67;100.00
47522;BME280;32291;52.010;4.446;2023-07-22T03:55:45;77979.25;;;-144.67;100.00
47522;BME280;32291;52.010;4.446;2023-07-22T03:56:47;77972.81;;;-144.67;100.00
47522;BME280;32291;52.010;4.446;2023-07-22T03:57:49;77970.69;;;-144.67;100.00
47522;BME280;32291;52.010;4.446;2023-07-22T03:58:56;77970.69;;;-144.67;100.00
47522;BME280;32291;52.010;4.446;2023-07-22T04:00:04;77970.69;;;-144.67;100.00
47522;BME280;32291;52.010;4.446;2023-07-22T04:01:10;77966.41;;;-144.67;100.00
47522;BME280;32291;52.010;4.446;2023-07-22T04:02:18;77966.41;;;-144.67;100.00
47522;BME280;32291;52.010;4.446;2023-07-22T04:03:20;77966.41;;;-144.67;100.00
47522;BME280;32291;52.010;4.446;2023-07-22T04:04:22;77966.41;;;-144.67;100.00
47522;BME280;32291;52.010;4.446;2023-07-22T04:05:24;77968.53;;;-144.67;100.00
47522;BME280;32291;52.010;4.446;2023-07-22T04:06:26;77964.25;;;-144.67;100.00
47522;BME280;32291;52.010;4.446;2023-07-22T04:07:28;77962.13;;;-144.67;100.00
47522;BME280;32291;52.010;4.446;2023-07-22T04:08:36;77962.13;;;-144.67;100.00
47522;BME280;32291;52.010;4.446;2023-07-22T04:09:38;77957.84;;;-144.67;100.00
47522;BME280;32291;52.010;4.446;2023-07-22T04:10:56;77953.56;;;-144.67;100.00
47522;BME280;32291;52.010;4.446;2023-07-22T04:11:58;77957.84;;;-144.67;100.00
47522;BME280;32291;52.010;4.446;2023-07-22T04:13:05;77955.69;;;-144.67;100.00
47522;BME280;32291;52.010;4.446;2023-07-22T04:14:12;77949.28;;;-144.67;100.00
47522;BME280;32291;52.010;4.446;2023-07-22T04:15:19;77949.28;;;-144.67;100.00
47522;BME280;32291;52.010;4.446;2023-07-22T04:16:21;77949.28;;;-144.67;100.00
47522;BME280;32291;52.010;4.446;2023-07-22T04:17:24;77947.13;;;-144.67;100.00
47522;BME280;32291;52.010;4.446;2023-07-22T04:18:26;77945.00;;;-144.67;100.00
47522;BME280;32291;52.010;4.446;2023-07-22T04:19:28;77940.72;;;-144.67;100.00
47522;BME280;32291;52.010;4.446;2023-07-22T04:20:30;77940.72;;;-144.67;100.00
47522;BME280;32291;52.010;4.446;2023-07-22T04:21:32;77934.28;;;-144.67;100.00
47522;BME280;32291;52.010;4.446;2023-07-22T04:22:39;77932.16;;;-144.67;100.00
47522;BME280;32291;52.010;4.446;2023-07-22T04:23:41;77936.44;;;-144.67;100.00
47522;BME280;32291;52.010;4.446;2023-07-22T04:24:44;77932.16;;;-144.67;100.00
47522;BME280;32291;52.010;4.446;2023-07-22T04:25:51;77927.88;;;-144.67;100.00
47522;BME280;32291;52.010;4.446;2023-07-22T04:26:57;77936.44;;;-144.67;100.00
47522;BME280;32291;52.010;4.446;2023-07-22T04:28:04;77932.16;;;-144.67;100.00
47522;BME280;32291;52.010;4.446;2023-07-22T04:29:11;77927.88;;;-144.67;100.00
47522;BME280;32291;52.010;4.446;2023-07-22T04:30:14;77930.00;;;-144.67;100.00
47522;BME280;32291;52.010;4.446;2023-07-22T04:31:22;77923.59;;;-144.67;100.00
47522;BME280;32291;52.010;4.446;2023-07-22T04:32:24;77921.44;;;-144.67;100.00
47522;BME280;32291;52.010;4.446;2023-07-22T04:33:27;77921.44;;;-144.67;100.00
47522;BME280;32291;52.010;4.446;2023-07-22T04:34:34;77919.31;;;-144.67;100.00
47522;BME280;32291;52.010;4.446;2023-07-22T04:35:43;77915.03;;;-144.67;100.00
47522;BME280;32291;52.010;4.446;2023-07-22T04:36:49;77915.03;;;-144.67;100.00
47522;BME280;32291;52.010;4.446;2023-07-22T04:37:56;77915.03;;;-144.67;100.00
47522;BME280;32291;52.010;4.446;2023-07-22T04:38:58;77908.59;;;-144.67;100.00
47522;BME280;32291;52.010;4.446;2023-07-22T04:40:01;77902.19;;;-144.67;100.00
47522;BME280;32291;52.010;4.446;2023-07-22T04:41:03;77904.31;;;-144.67;100.00
47522;BME280;32291;52.010;4.446;2023-07-22T04:42:06;77904.31;;;-144.67;100.00
47522;BME280;32291;52.010;4.446;2023-07-22T04:43:09;77897.91;;;-144.67;100.00
47522;BME280;32291;52.010;4.446;2023-07-22T04:44:11;77889.34;;;-144.67;100.00
47522;BME280;32291;52.010;4.446;2023-07-22T04:45:13;77887.19;;;-144.67;100.00
47522;BME280;32291;52.010;4.446;2023-07-22T04:46:20;77885.06;;;-144.67;100.00
47522;BME280;32291;52.010;4.446;2023-07-22T04:47:22;77882.91;;;-144.67;100.00
47522;BME280;32291;52.010;4.446;2023-07-22T04:48:29;77882.91;;;-144.67;100.00
47522;BME280;32291;52.010;4.446;2023-07-22T04:49:33;77878.63;;;-144.67;100.00
47522;BME280;32291;52.010;4.446;2023-07-22T04:50:36;77876.50;;;-144.67;100.00
47522;BME280;32291;52.010;4.446;2023-07-22T04:51:48;77867.94;;;-144.67;100.00
47522;BME280;32291;52.010;4.446;2023-07-22T04:52:50;77859.38;;;-144.67;100.00
47522;BME280;32291;52.010;4.446;2023-07-22T04:53:57;77861.50;;;-144.67;100.00
47522;BME280;32291;52.010;4.446;2023-07-22T04:54:59;77848.66;;;-144.67;100.00
47522;BME280;32291;52.010;4.446;2023-07-22T04:56:01;77848.66;;;-144.67;100.00
47522;BME280;32291;52.010;4.446;2023-07-22T04:57:05;77848.66;;;-144.67;100.00
47522;BME280;32291;52.010;4.446;2023-07-22T04:58:12;77840.09;;;-144.67;100.00
47522;BME280;32291;52.010;4.446;2023-07-22T04:59:19;77842.22;;;-144.67;100.00
47522;BME280;32291;52.010;4.446;2023-07-22T05:00:22;77846.50;;;-144.67;100.00
47522;BME280;32291;52.010;4.446;2023-07-22T05:01:29;77842.22;;;-144.67;100.00
47522;BME280;32291;52.010;4.446;2023-07-22T05:02:32;77846.50;;;-144.67;100.00
47522;BME280;32291;52.010;4.446;2023-07-22T05:03:34;77837.97;;;-144.67;100.00
47522;BME280;32291;52.010;4.446;2023-07-22T05:04:37;77835.81;;;-144.67;100.00
47522;BME280;32291;52.010;4.446;2023-07-22T05:05:44;77833.66;;;-144.67;100.00
47522;BME280;32291;52.010;4.446;2023-07-22T05:06:46;77825.09;;;-144.67;100.00
47522;BME280;32291;52.010;4.446;2023-07-22T05:07:49;77833.66;;;-144.67;100.00
47522;BME280;32291;52.010;4.446;2023-07-22T05:08:56;77827.25;;;-144.67;100.00
47522;BME280;32291;52.010;4.446;2023-07-22T05:10:03;77816.53;;;-144.67;100.00
47522;BME280;32291;52.010;4.446;2023-07-22T05:11:10;77807.97;;;-144.67;100.00
47522;BME280;32291;52.010;4.446;2023-07-22T05:12:17;77807.97;;;-144.67;100.00
47522;BME280;32291;52.010;4.446;2023-07-22T05:13:24;77805.84;;;-144.67;100.00
47522;BME280;32291;52.010;4.446;2023-07-22T05:14:31;77799.41;;;-144.67;100.00
47522;BME280;32291;52.010;4.446;2023-07-22T05:15:34;77790.84;;;-144.67;100.00
47522;BME280;32291;52.010;4.446;2023-07-22T05:16:41;77795.13;;;-144.67;100.00
47522;BME280;32291;52.010;4.446;2023-07-22T05:17:43;77790.84;;;-144.67;100.00
47522;BME280;32291;52.010;4.446;2023-07-22T05:18:45;77786.56;;;-144.67;100.00
47522;BME280;32291;52.010;4.446;2023-07-22T05:19:47;77778.00;;;-144.67;100.00
47522;BME280;32291;52.010;4.446;2023-07-22T05:20:50;77780.16;;;-144.67;100.00
47522;BME280;32291;52.010;4.446;2023-07-22T05:21:53;77784.44;;;-144.67;100.00
47522;BME280;32291;52.010;4.446;2023-07-22T05:22:55;77778.00;;;-144.67;100.00
47522;BME280;32291;52.010;4.446;2023-07-22T05:23:57;77773.72;;;-144.67;100.00
47522;BME280;32291;52.010;4.446;2023-07-22T05:24:59;77765.16;;;-144.67;100.00
47522;BME280;32291;52.010;4.446;2023-07-22T05:26:02;77773.72;;;-144.67;100.00
47522;BME280;32291;52.010;4.446;2023-07-22T05:27:09;77760.88;;;-144.67;100.00
47522;BME280;32291;52.010;4.446;2023-07-22T05:28:11;77754.47;;;-144.67;100.00
47522;BME280;32291;52.010;4.446;2023-07-22T05:29:18;77756.59;;;-144.67;100.00
47522;BME280;32291;52.010;4.446;2023-07-22T05:30:25;77748.03;;;-144.67;100.00